createdAt,value
2023-04-19T00:00:43.751Z,2.90
2023-04-19T00:03:15.173Z,2.45
2023-04-19T00:05:46.462Z,2.13
2023-04-19T00:08:17.088Z,3.42
2023-04-19T00:10:47.404Z,1.80
2023-04-19T00:13:19.152Z,2.47
2023-04-19T00:15:52.370Z,1.77
2023-04-19T00:18:23.027Z,2.40
2023-04-19T00:20:53.542Z,3.40
2023-04-19T00:23:24.082Z,2.33
2023-04-19T00:25:54.820Z,2.10
2023-04-19T00:28:25.054Z,2.60
2023-04-19T00:30:57.992Z,1.90
2023-04-19T00:33:28.492Z,2.33
2023-04-19T00:36:00.906Z,2.10
2023-04-19T00:38:31.106Z,2.10
2023-04-19T00:41:02.692Z,1.92
2023-04-19T00:43:32.802Z,2.40
2023-04-19T00:46:07.018Z,1.88
2023-04-19T00:48:38.138Z,1.50
2023-04-19T00:51:10.781Z,1.60
2023-04-19T00:53:41.305Z,1.63
2023-04-19T00:56:12.884Z,1.98
2023-04-19T00:58:43.145Z,1.95
2023-04-19T01:01:16.034Z,1.85
2023-04-19T01:03:47.162Z,2.10
2023-04-19T01:06:18.090Z,1.92
2023-04-19T01:08:48.374Z,1.90
2023-04-19T01:11:18.490Z,1.95
2023-04-19T01:13:48.855Z,1.65
2023-04-19T01:16:23.932Z,1.92
2023-04-19T01:18:54.340Z,1.63
2023-04-19T01:21:26.117Z,1.67
2023-04-19T01:23:59.466Z,2.22
2023-04-19T01:26:29.669Z,1.60
2023-04-19T01:29:00.049Z,1.77
2023-04-19T01:31:30.186Z,1.80
2023-04-19T01:34:00.907Z,1.42
2023-04-19T01:36:31.557Z,1.40
2023-04-19T01:39:05.041Z,1.30
2023-04-19T01:41:35.135Z,2.00
2023-04-19T01:44:06.171Z,2.10
2023-04-19T01:46:36.848Z,1.58
2023-04-19T01:49:07.569Z,1.67
2023-04-19T01:51:37.859Z,3.75
2023-04-19T01:54:10.673Z,2.00
2023-04-19T01:56:40.956Z,1.40
2023-04-19T01:59:11.208Z,1.25
2023-04-19T02:01:41.449Z,1.52
2023-04-19T02:04:13.750Z,1.80
2023-04-19T02:06:44.128Z,1.38
2023-04-19T02:09:16.884Z,1.20
2023-04-19T02:11:49.305Z,0.95
2023-04-19T02:14:19.948Z,1.80
2023-04-19T02:16:50.245Z,1.10
2023-04-19T02:19:20.871Z,1.00
2023-04-19T02:21:51.995Z,1.50
2023-04-19T02:24:25.031Z,1.80
2023-04-19T02:26:55.313Z,1.55
2023-04-19T02:29:25.754Z,1.10
2023-04-19T02:31:56.058Z,1.70
2023-04-19T02:34:26.265Z,1.27
2023-04-19T02:36:56.686Z,1.50
2023-04-19T02:39:29.463Z,1.80
2023-04-19T02:41:59.932Z,1.77
2023-04-19T02:44:30.647Z,1.58
2023-04-19T02:47:01.173Z,1.70
2023-04-19T02:49:36.626Z,1.70
2023-04-19T02:52:08.199Z,1.77
2023-04-19T02:54:46.056Z,1.50
2023-04-19T02:57:16.892Z,1.17
2023-04-19T02:59:47.893Z,1.13
2023-04-19T03:02:18.892Z,1.80
2023-04-19T03:04:49.276Z,1.30
2023-04-19T03:07:20.247Z,1.85
2023-04-19T03:09:53.350Z,1.48
2023-04-19T03:12:23.946Z,1.50
2023-04-19T03:14:54.207Z,1.40
2023-04-19T03:17:25.047Z,1.00
2023-04-19T03:19:56.963Z,1.50
2023-04-19T03:22:28.028Z,1.20
2023-04-19T03:25:00.916Z,1.30
2023-04-19T03:27:31.425Z,1.40
2023-04-19T03:30:05.885Z,1.10
2023-04-19T03:32:36.589Z,1.00
2023-04-19T03:35:07.572Z,0.98
2023-04-19T03:37:38.552Z,1.13
2023-04-19T03:40:12.255Z,1.05
2023-04-19T03:42:42.820Z,1.10
2023-04-19T03:45:16.200Z,0.82
2023-04-19T03:47:50.217Z,0.98
2023-04-19T03:50:20.732Z,1.25
2023-04-19T03:52:55.005Z,1.20
2023-04-19T03:55:27.930Z,1.48
2023-04-19T03:57:58.363Z,1.42
2023-04-19T04:00:45.938Z,1.23
2023-04-19T04:03:17.929Z,1.20
2023-04-19T04:05:48.463Z,1.20
2023-04-19T04:08:19.370Z,1.60
2023-04-19T04:10:52.223Z,1.75
2023-04-19T04:13:22.777Z,1.38
2023-04-19T04:16:04.596Z,1.42
2023-04-19T04:18:35.398Z,1.27
2023-04-19T04:21:08.434Z,1.98
2023-04-19T04:23:42.164Z,1.70
2023-04-19T04:26:22.112Z,1.38
2023-04-19T04:29:17.974Z,0.90
2023-04-19T04:31:48.956Z,0.90
2023-04-19T04:34:22.998Z,1.38
2023-04-19T04:36:59.562Z,1.60
2023-04-19T04:39:30.047Z,1.52
2023-04-19T04:42:03.449Z,1.58
2023-04-19T04:44:34.444Z,1.25
2023-04-19T04:47:04.850Z,1.75
2023-04-19T04:49:41.176Z,1.20
2023-04-19T04:52:11.726Z,2.17
2023-04-19T04:54:54.841Z,1.50
2023-04-19T04:57:33.689Z,1.45
2023-04-19T05:00:10.144Z,2.03
2023-04-19T05:02:48.866Z,1.10
2023-04-19T05:05:19.598Z,1.67
2023-04-19T05:07:50.089Z,1.00
2023-04-19T05:10:21.268Z,1.58
2023-04-19T05:12:54.562Z,1.13
2023-04-19T05:15:25.136Z,1.33
2023-04-19T05:17:58.196Z,1.70
2023-04-19T05:20:29.215Z,1.23
2023-04-19T05:23:08.450Z,2.30
2023-04-19T05:25:39.084Z,1.40
2023-04-19T05:28:12.099Z,1.02
2023-04-19T05:30:57.357Z,1.20
2023-04-19T05:33:32.313Z,0.90
2023-04-19T05:36:03.666Z,1.27
2023-04-19T05:38:33.879Z,1.15
2023-04-19T05:41:06.115Z,1.00
2023-04-19T05:43:38.950Z,0.82
2023-04-19T05:46:11.201Z,0.82
2023-04-19T05:48:41.319Z,0.70
2023-04-19T05:51:37.553Z,0.82
2023-04-19T05:54:28.207Z,1.13
2023-04-19T05:56:58.321Z,1.30
2023-04-19T05:59:31.072Z,1.02
2023-04-19T06:02:01.698Z,1.50
2023-04-19T06:04:32.300Z,1.40
2023-04-19T06:07:04.519Z,1.38
2023-04-19T06:09:36.793Z,1.42
2023-04-19T06:12:07.097Z,1.27
2023-04-19T06:14:41.055Z,1.30
2023-04-19T06:19:42.619Z,0.95
2023-04-19T06:22:12.786Z,0.80
2023-04-19T06:24:42.978Z,0.85
2023-04-19T06:27:13.153Z,0.70
2023-04-19T06:29:46.020Z,0.90
2023-04-19T06:32:16.221Z,1.17
2023-04-19T06:34:46.548Z,1.40
2023-04-19T06:37:16.656Z,1.00
2023-04-19T06:39:47.004Z,0.80
2023-04-19T06:42:20.030Z,1.15
2023-04-19T06:44:53.359Z,0.70
2023-04-19T06:47:23.819Z,0.85
2023-04-19T06:49:54.204Z,1.20
2023-04-19T06:52:24.928Z,0.80
2023-04-19T06:54:55.662Z,1.00
2023-04-19T06:57:25.763Z,0.90
2023-04-19T06:59:59.757Z,1.05
2023-04-19T07:02:30.348Z,1.17
2023-04-19T07:05:01.164Z,1.00
2023-04-19T07:07:31.251Z,1.25
2023-04-19T07:10:01.585Z,1.70
2023-04-19T07:12:32.059Z,0.95
2023-04-19T07:15:04.979Z,0.60
2023-04-19T07:17:37.072Z,1.25
2023-04-19T07:20:09.334Z,1.55
2023-04-19T07:22:39.600Z,1.13
2023-04-19T07:25:11.133Z,1.23
2023-04-19T07:27:41.632Z,1.60
2023-04-19T07:30:14.711Z,1.00
2023-04-19T07:32:45.098Z,0.90
2023-04-19T07:35:15.488Z,1.25
2023-04-19T07:37:45.728Z,1.63
2023-04-19T07:40:16.654Z,1.58
2023-04-19T07:42:47.182Z,1.20
2023-04-19T07:45:20.315Z,1.15
2023-04-19T07:47:50.893Z,1.63
2023-04-19T07:50:23.174Z,1.23
2023-04-19T07:52:53.502Z,1.10
2023-04-19T07:55:24.245Z,1.40
2023-04-19T07:57:54.603Z,1.55
2023-04-19T08:00:27.909Z,1.25
2023-04-19T08:02:58.183Z,1.27
2023-04-19T08:05:28.834Z,1.42
2023-04-19T08:07:59.637Z,1.20
2023-04-19T08:10:30.716Z,1.20
2023-04-19T08:13:05.140Z,1.48
2023-04-19T08:16:20.330Z,1.52
2023-04-19T08:18:29.572Z,1.80
2023-04-19T08:20:59.940Z,1.55
2023-04-19T08:23:41.313Z,1.63
2023-04-19T08:26:15.254Z,1.77
2023-04-19T08:28:45.596Z,1.70
2023-04-19T08:31:20.278Z,1.50
2023-04-19T08:33:50.704Z,1.50
2023-04-19T08:36:28.690Z,1.20
2023-04-19T08:39:12.256Z,1.20
2023-04-19T08:41:48.249Z,1.65
2023-04-19T08:44:34.976Z,1.80
2023-04-19T08:47:10.206Z,1.60
2023-04-19T08:49:44.783Z,1.73
2023-04-19T08:52:16.560Z,1.88
2023-04-19T08:54:47.179Z,1.63
2023-04-19T08:57:18.394Z,1.63
2023-04-19T08:59:51.403Z,1.50
2023-04-19T09:02:24.677Z,1.40
2023-04-19T09:04:55.363Z,1.13
2023-04-19T09:07:29.368Z,1.45
2023-04-19T09:10:10.435Z,0.90
2023-04-19T09:12:42.221Z,1.17
2023-04-19T09:15:14.073Z,1.30
2023-04-19T09:17:47.329Z,1.05
2023-04-19T09:20:17.620Z,1.30
2023-04-19T09:23:06.712Z,1.30
2023-04-19T09:25:52.885Z,1.30
2023-04-19T09:28:27.624Z,1.00
2023-04-19T09:31:10.707Z,1.30
2023-04-19T09:33:51.862Z,0.85
2023-04-19T09:36:30.920Z,0.80
2023-04-19T09:39:01.752Z,1.30
2023-04-19T09:41:33.100Z,1.10
2023-04-19T09:46:53.342Z,1.25
2023-04-19T09:49:37.477Z,1.60
2023-04-19T09:52:16.689Z,1.30
2023-04-19T09:54:49.054Z,1.30
2023-04-19T09:57:19.893Z,1.33
2023-04-19T09:59:50.126Z,1.95
2023-04-19T10:02:22.315Z,1.27
2023-04-19T10:05:11.342Z,1.10
2023-04-19T10:07:46.809Z,1.35
2023-04-19T10:10:21.538Z,1.20
2023-04-19T10:15:49.261Z,1.60
2023-04-19T10:18:22.506Z,1.10
2023-04-19T10:21:01.517Z,1.20
2023-04-19T10:23:32.163Z,1.50
2023-04-19T10:26:02.376Z,1.50
2023-04-19T10:28:34.342Z,0.90
2023-04-19T10:31:06.053Z,0.98
2023-04-19T10:33:40.082Z,1.40
2023-04-19T10:36:18.189Z,1.25
2023-04-19T10:38:52.177Z,1.00
2023-04-19T10:41:23.403Z,1.02
2023-04-19T10:44:14.798Z,1.35
2023-04-19T10:46:44.958Z,1.08
2023-04-19T10:49:15.534Z,1.73
2023-04-19T10:51:55.128Z,1.10
2023-04-19T10:54:32.968Z,1.40
2023-04-19T10:57:06.107Z,0.90
2023-04-19T10:59:37.836Z,1.13
2023-04-19T11:02:29.145Z,1.00
2023-04-19T11:05:04.634Z,0.93
2023-04-19T11:07:49.493Z,1.20
2023-04-19T11:10:32.203Z,1.00
2023-04-19T11:13:03.418Z,1.02
2023-04-19T11:15:33.543Z,1.25
2023-04-19T11:18:12.620Z,1.50
2023-04-19T11:20:46.564Z,0.98
2023-04-19T11:23:22.803Z,1.10
2023-04-19T11:25:54.471Z,1.25
2023-04-19T11:28:24.833Z,1.15
2023-04-19T11:30:57.164Z,1.30
2023-04-19T11:33:28.975Z,1.23
2023-04-19T11:35:59.236Z,1.30
2023-04-19T11:38:34.087Z,1.10
2023-04-19T11:41:04.676Z,1.35
2023-04-19T11:43:39.161Z,1.10
2023-04-19T11:46:09.967Z,1.40
2023-04-19T11:48:41.488Z,1.50
2023-04-19T11:51:12.189Z,1.10
2023-04-19T11:53:45.001Z,1.10
2023-04-19T11:56:15.698Z,1.30
2023-04-19T11:58:48.854Z,1.40
2023-04-19T12:01:19.952Z,1.60
2023-04-19T12:03:53.104Z,1.50
2023-04-19T12:06:28.300Z,1.70
2023-04-19T12:09:01.803Z,1.13
2023-04-19T12:11:46.664Z,1.48
2023-04-19T12:14:19.972Z,1.00
2023-04-19T12:17:06.403Z,0.97
2023-04-19T12:19:39.958Z,1.50
2023-04-19T12:22:20.663Z,1.40
2023-04-19T12:24:54.552Z,1.27
2023-04-19T12:27:25.946Z,1.65
2023-04-19T12:29:56.174Z,0.90
2023-04-19T12:32:26.488Z,1.60
2023-04-19T12:34:57.049Z,1.27
2023-04-19T12:37:27.668Z,1.20
2023-04-19T12:40:00.549Z,1.10
2023-04-19T12:42:30.749Z,1.50
2023-04-19T12:45:01.372Z,1.52
2023-04-19T12:47:31.537Z,1.30
2023-04-19T12:50:02.008Z,1.40
2023-04-19T12:52:32.320Z,1.70
2023-04-19T12:55:05.883Z,1.40
2023-04-19T12:57:36.255Z,1.63
2023-04-19T13:00:07.435Z,1.55
2023-04-19T13:02:38.049Z,1.90
2023-04-19T13:05:09.387Z,1.20
2023-04-19T13:07:39.758Z,1.67
2023-04-19T13:10:13.350Z,1.45
2023-04-19T13:12:43.480Z,1.27
2023-04-19T13:15:14.476Z,1.20
2023-04-19T13:17:44.798Z,1.80
2023-04-19T13:20:16.037Z,1.83
2023-04-19T13:22:46.410Z,1.30
2023-04-19T13:25:19.317Z,2.08
2023-04-19T13:27:49.515Z,1.63
2023-04-19T13:30:20.200Z,1.40
2023-04-19T13:32:50.738Z,1.52
2023-04-19T13:35:21.957Z,1.27
2023-04-19T13:37:52.594Z,2.47
2023-04-19T13:40:25.531Z,1.38
2023-04-19T13:42:57.116Z,1.35
2023-04-19T13:45:27.404Z,1.85
2023-04-19T13:47:57.935Z,2.20
2023-04-19T13:50:28.196Z,2.00
2023-04-19T13:52:58.709Z,1.65
2023-04-19T13:55:31.854Z,1.95
2023-04-19T13:58:02.417Z,1.90
2023-04-19T14:00:32.938Z,1.75
2023-04-19T14:03:03.426Z,1.63
2023-04-19T14:05:33.864Z,1.65
2023-04-19T14:08:04.333Z,2.00
2023-04-19T14:10:37.693Z,1.50
2023-04-19T14:13:08.298Z,2.13
2023-04-19T14:15:39.043Z,1.75
2023-04-19T14:18:09.783Z,1.67
2023-04-19T14:20:40.225Z,2.10
2023-04-19T14:23:11.674Z,1.88
2023-04-19T14:25:44.992Z,1.77
2023-04-19T14:28:15.826Z,1.80
2023-04-19T14:30:46.289Z,1.52
2023-04-19T14:33:16.924Z,2.30
2023-04-19T14:35:47.468Z,1.95
2023-04-19T14:38:17.811Z,1.30
2023-04-19T14:40:51.722Z,1.83
2023-04-19T14:43:22.187Z,2.30
2023-04-19T14:45:53.073Z,1.80
2023-04-19T14:48:23.609Z,1.80
2023-04-19T14:50:53.931Z,1.80
2023-04-19T14:53:24.309Z,1.60
2023-04-19T14:55:57.370Z,1.90
2023-04-19T14:58:27.728Z,1.23
2023-04-19T15:00:58.113Z,1.20
2023-04-19T15:03:28.986Z,1.58
2023-04-19T15:05:59.660Z,1.40
2023-04-19T15:08:31.022Z,1.13
2023-04-19T15:11:04.106Z,1.85
2023-04-19T15:13:35.914Z,1.60
2023-04-19T15:16:07.892Z,1.35
2023-04-19T15:18:38.571Z,1.58
2023-04-19T15:21:09.166Z,1.35
2023-04-19T15:23:39.618Z,1.90
2023-04-19T15:26:12.724Z,1.67
2023-04-19T15:28:43.083Z,1.70
2023-04-19T15:31:13.738Z,1.80
2023-04-19T15:33:44.273Z,1.77
2023-04-19T15:36:14.745Z,1.75
2023-04-19T15:38:44.981Z,1.05
2023-04-19T15:41:17.927Z,1.60
2023-04-19T15:43:48.347Z,1.10
2023-04-19T15:46:19.138Z,1.80
2023-04-19T15:48:50.341Z,2.17
2023-04-19T15:51:20.672Z,1.55
2023-04-19T15:53:50.917Z,1.60
2023-04-19T15:56:24.225Z,2.00
2023-04-19T15:58:56.927Z,1.55
2023-04-19T16:01:27.515Z,1.25
2023-04-19T16:03:58.155Z,1.88
2023-04-19T16:06:28.980Z,1.50
2023-04-19T16:08:59.399Z,1.40
2023-04-19T16:11:32.578Z,1.40
2023-04-19T16:14:02.720Z,0.90
2023-04-19T16:16:34.564Z,1.75
2023-04-19T16:19:04.869Z,1.02
2023-04-19T16:21:35.129Z,1.38
2023-04-19T16:24:05.630Z,1.13
2023-04-19T16:26:38.888Z,1.60
2023-04-19T16:29:09.027Z,1.38
2023-04-19T16:31:39.348Z,1.90
2023-04-19T16:34:09.420Z,1.60
2023-04-19T16:36:40.751Z,1.63
2023-04-19T16:39:10.981Z,2.33
2023-04-19T16:41:44.111Z,1.90
2023-04-19T16:44:14.379Z,2.10
2023-04-19T16:46:45.272Z,1.55
2023-04-19T16:49:15.894Z,1.80
2023-04-19T16:51:46.388Z,2.08
2023-04-19T16:54:16.540Z,1.63
2023-04-19T16:56:49.233Z,2.55
2023-04-19T16:59:19.470Z,2.05
2023-04-19T17:01:49.817Z,1.70
2023-04-19T17:04:20.564Z,1.60
2023-04-19T17:06:51.973Z,1.73
2023-04-19T17:09:22.139Z,1.38
2023-04-19T17:11:55.205Z,1.23
2023-04-19T17:14:26.469Z,0.83
2023-04-19T17:16:56.721Z,1.55
2023-04-19T17:19:26.969Z,1.38
2023-04-19T17:21:58.892Z,1.10
2023-04-19T17:24:29.039Z,1.67
2023-04-19T17:27:02.434Z,1.40
2023-04-19T17:29:32.795Z,2.05
2023-04-19T17:32:03.152Z,1.50
2023-04-19T17:34:36.054Z,1.33
2023-04-19T17:37:07.175Z,1.13
2023-04-19T17:39:37.332Z,1.40
2023-04-19T17:42:10.266Z,1.50
2023-04-19T17:44:40.325Z,1.10
2023-04-19T17:47:10.619Z,1.50
2023-04-19T17:49:40.810Z,1.38
2023-04-19T17:52:11.166Z,1.88
2023-04-19T17:54:41.352Z,1.73
2023-04-19T17:57:14.265Z,1.67
2023-04-19T17:59:44.696Z,1.40
2023-04-19T18:02:15.024Z,1.58
2023-04-19T18:04:51.709Z,1.70
2023-04-19T18:07:22.003Z,1.83
2023-04-19T18:09:52.144Z,1.50
2023-04-19T18:12:24.973Z,2.25
2023-04-19T18:14:55.225Z,1.35
2023-04-19T18:17:25.907Z,1.83
2023-04-19T18:19:56.439Z,2.00
2023-04-19T18:22:26.970Z,1.65
2023-04-19T18:24:57.382Z,2.00
2023-04-19T18:27:32.242Z,1.80
2023-04-19T18:30:04.146Z,1.95
2023-04-19T18:32:35.763Z,2.08
2023-04-19T18:35:06.341Z,2.28
2023-04-19T18:37:36.780Z,2.10
2023-04-19T18:40:08.562Z,2.13
2023-04-19T18:43:00.263Z,1.90
2023-04-19T18:45:32.980Z,2.05
2023-04-19T18:48:04.092Z,2.17
2023-04-19T18:50:34.600Z,2.45
2023-04-19T18:53:04.755Z,2.20
2023-04-19T18:55:34.956Z,1.38
2023-04-19T18:58:07.768Z,2.47
2023-04-19T19:00:40.903Z,2.00
2023-04-19T19:03:32.141Z,1.75
2023-04-19T19:06:01.751Z,1.55
2023-04-19T19:08:32.352Z,1.23
2023-04-19T19:13:38.802Z,1.50
2023-04-19T19:16:09.095Z,1.77
2023-04-19T19:18:39.260Z,1.05
2023-04-19T19:21:09.568Z,1.92
2023-04-19T19:23:42.528Z,2.17
2023-04-19T19:26:14.786Z,2.60
2023-04-19T19:28:47.535Z,2.25
2023-04-19T19:31:17.762Z,2.20
2023-04-19T19:33:56.983Z,2.42
2023-04-19T19:36:38.593Z,2.83
2023-04-19T19:39:15.010Z,1.65
2023-04-19T19:44:21.880Z,1.70
2023-04-19T19:46:52.145Z,2.25
2023-04-19T19:49:22.897Z,2.08
2023-04-19T19:51:58.669Z,2.10
2023-04-19T19:54:29.897Z,2.58
2023-04-19T19:57:41.963Z,2.70
2023-04-19T19:59:56.254Z,2.50
2023-04-19T20:02:27.302Z,3.05
2023-04-19T20:04:57.923Z,2.40
2023-04-19T20:07:42.499Z,2.03
2023-04-19T20:10:19.751Z,1.60
2023-04-19T20:12:50.227Z,1.90
2023-04-19T20:15:23.030Z,1.40
2023-04-19T20:17:53.124Z,1.65
2023-04-19T20:20:23.325Z,1.90
2023-04-19T20:22:53.481Z,2.75
2023-04-19T20:25:23.590Z,1.98
2023-04-19T20:27:54.413Z,1.30
2023-04-19T20:30:27.377Z,1.75
2023-04-19T20:32:57.567Z,2.05
2023-04-19T20:35:28.082Z,2.30
2023-04-19T20:38:02.414Z,2.20
2023-04-19T20:40:33.506Z,2.45
2023-04-19T20:43:04.182Z,3.05
2023-04-19T20:45:37.081Z,2.20
2023-04-19T20:48:08.794Z,2.40
2023-04-19T20:50:39.098Z,2.40
2023-04-19T20:53:09.342Z,2.17
2023-04-19T20:55:40.290Z,2.53
2023-04-19T20:58:10.975Z,3.10
2023-04-19T21:00:43.675Z,2.75
2023-04-19T21:03:14.242Z,2.75
2023-04-19T21:05:44.847Z,2.42
2023-04-19T21:08:16.292Z,2.45
2023-04-19T21:10:46.420Z,1.92
2023-04-19T21:13:16.546Z,1.80
2023-04-19T21:15:49.400Z,1.63
2023-04-19T21:18:20.477Z,2.00
2023-04-19T21:20:50.716Z,1.70
2023-04-19T21:23:20.900Z,2.03
2023-04-19T21:25:51.019Z,2.20
2023-04-19T21:28:22.829Z,1.40
2023-04-19T21:30:56.150Z,1.70
2023-04-19T21:33:26.336Z,1.70
2023-04-19T21:35:56.643Z,1.77
2023-04-19T21:38:26.838Z,2.70
2023-04-19T21:40:56.942Z,2.22
2023-04-19T21:43:27.360Z,1.55
2023-04-19T21:46:01.994Z,2.30
2023-04-19T21:48:32.349Z,1.90
2023-04-19T21:51:03.344Z,2.00
2023-04-19T21:53:33.790Z,1.77
2023-04-19T21:56:03.897Z,2.65
2023-04-19T21:58:34.240Z,2.05
2023-04-19T22:01:07.320Z,2.50
2023-04-19T22:03:37.838Z,1.45
2023-04-19T22:06:08.671Z,2.08
2023-04-19T22:08:39.160Z,2.28
2023-04-19T22:11:09.420Z,2.90
2023-04-19T22:13:39.517Z,2.70
2023-04-19T22:16:12.767Z,2.67
2023-04-19T22:18:42.857Z,3.22
2023-04-19T22:21:14.367Z,2.15
2023-04-19T22:23:44.874Z,2.30
2023-04-19T22:26:15.261Z,3.13
2023-04-19T22:28:45.502Z,2.55
2023-04-19T22:31:18.160Z,2.17
2023-04-19T22:33:48.888Z,2.17
2023-04-19T22:36:18.997Z,1.80
2023-04-19T22:38:49.111Z,3.13
2023-04-19T22:41:19.256Z,2.95
2023-04-19T22:43:49.683Z,3.50
2023-04-19T22:46:22.423Z,3.10
2023-04-19T22:48:53.170Z,3.90
2023-04-19T22:51:24.509Z,3.60
2023-04-19T22:53:54.680Z,3.00
2023-04-19T22:56:25.083Z,3.08
2023-04-19T22:58:55.400Z,3.25
2023-04-19T23:01:28.130Z,3.08
2023-04-19T23:03:58.332Z,3.13
2023-04-19T23:06:29.151Z,3.30
2023-04-19T23:09:00.764Z,2.85
2023-04-19T23:11:30.841Z,2.78
2023-04-19T23:14:01.962Z,3.13
2023-04-19T23:16:35.273Z,3.50
2023-04-19T23:19:05.522Z,2.37
2023-04-19T23:21:36.241Z,3.20
2023-04-19T23:24:07.035Z,2.38
2023-04-19T23:26:37.421Z,3.65
2023-04-19T23:29:07.558Z,3.03
2023-04-19T23:31:40.444Z,3.22
2023-04-19T23:34:10.911Z,2.90
2023-04-19T23:36:41.154Z,3.00
2023-04-19T23:39:12.048Z,2.92
2023-04-19T23:41:42.535Z,2.85
2023-04-19T23:44:13.028Z,2.20
2023-04-19T23:46:46.340Z,2.47
2023-04-19T23:49:17.263Z,2.90
2023-04-19T23:51:49.563Z,2.33
2023-04-19T23:54:22.376Z,2.50
2023-04-19T23:56:52.549Z,2.78
2023-04-19T23:59:26.956Z,2.53
